Time;durP1;ratioP1;P1;durP2;ratioP2;P2;SDS_P1;SDS_P2;PMS_P1;PMS_P2;Temp;Humidity;BMP_temperature;BMP_pressure;BME280_temperature;BME280_humidity;BME280_pressure;Samples;Min_cycle;Max_cycle;Signal;HPM_P1;HPM_P2
2023/01/11 00:00:16;;;;;;;9.32;1.95;;;;;;;;;;7393959;19;20014;-74
2023/01/11 00:02:44;;;;;;;9.63;2.20;;;;;;;;;;7392340;19;20001;-74
2023/01/11 00:05:10;;;;;;;12.60;2.25;;;;;;;;;;7395460;19;20006;-74
2023/01/11 00:07:36;;;;;;;8.50;1.75;;;;;;;;;;7398111;19;20003;-74
2023/01/11 00:10:03;;;;;;;7.55;1.73;;;;;;;;;;7393124;19;20345;-74
2023/01/11 00:12:29;;;;;;;11.55;2.13;;;;;;;;;;7393802;19;20003;-74
2023/01/11 00:14:55;;;;;;;9.00;2.03;;;;;;;;;;7391292;19;20076;-73
2023/01/11 00:17:20;;;;;;;8.75;2.42;;;;;;;;;;7394835;19;19998;-73
2023/01/11 00:19:46;;;;;;;5.55;2.03;;;;;;;;;;7399359;19;20003;-74
2023/01/11 00:22:11;;;;;;;8.30;2.08;;;;;;;;;;7393398;19;20095;-73
2023/01/11 00:24:36;;;;;;;3.78;1.63;;;;;;;;;;7391363;19;20530;-74
2023/01/11 00:27:01;;;;;;;8.77;2.15;;;;;;;;;;7393113;19;20058;-73
2023/01/11 00:29:27;;;;;;;5.82;2.55;;;;;;;;;;7391027;19;20054;-73
2023/01/11 00:31:52;;;;;;;5.88;2.03;;;;;;;;;;7393056;19;19998;-73
2023/01/11 00:34:19;;;;;;;6.32;2.13;;;;;;;;;;7391245;19;20023;-74
2023/01/11 00:36:44;;;;;;;7.07;2.10;;;;;;;;;;7391364;19;20003;-74
2023/01/11 00:39:09;;;;;;;10.88;2.67;;;;;;;;;;7392958;19;20003;-73
2023/01/11 00:49:47;;;;;;;8.73;2.42;;;;;;;;;;7392995;19;20009;-73
2023/01/11 00:52:12;;;;;;;8.15;2.03;;;;;;;;;;7392507;19;20003;-75
2023/01/11 00:54:38;;;;;;;10.15;2.47;;;;;;;;;;7390210;19;19995;-74
2023/01/11 00:57:06;;;;;;;10.80;2.25;;;;;;;;;;7392320;19;20019;-74
2023/01/11 00:59:35;;;;;;;3.80;1.77;;;;;;;;;;7392392;19;20023;-74
2023/01/11 01:02:00;;;;;;;5.28;1.80;;;;;;;;;;7393793;19;20484;-73
2023/01/11 01:04:26;;;;;;;6.32;2.00;;;;;;;;;;7391586;19;20009;-73
2023/01/11 01:06:51;;;;;;;9.57;2.13;;;;;;;;;;7392258;19;20007;-74
2023/01/11 01:09:16;;;;;;;3.42;1.83;;;;;;;;;;7392162;19;20087;-73
2023/01/11 01:11:42;;;;;;;6.93;2.15;;;;;;;;;;7394286;19;20456;-75
2023/01/11 01:14:27;;;;;;;7.60;2.53;;;;;;;;;;7390761;19;19999;-73
2023/01/11 01:17:02;;;;;;;5.10;1.77;;;;;;;;;;7392100;19;20444;-75
2023/01/11 01:19:32;;;;;;;3.42;1.80;;;;;;;;;;7391215;19;19994;-74
2023/01/11 01:21:58;;;;;;;11.00;2.30;;;;;;;;;;7389800;19;20123;-74
2023/01/11 01:24:27;;;;;;;7.05;2.42;;;;;;;;;;7390942;19;19994;-74
2023/01/11 01:26:53;;;;;;;9.05;2.30;;;;;;;;;;7390038;19;20048;-74
2023/01/11 01:29:18;;;;;;;7.10;2.08;;;;;;;;;;7393945;19;20474;-75
2023/01/11 01:31:44;;;;;;;8.05;2.08;;;;;;;;;;7401147;19;20020;-73
2023/01/11 01:34:10;;;;;;;4.05;1.77;;;;;;;;;;7397254;19;19998;-73
2023/01/11 01:36:35;;;;;;;3.53;1.60;;;;;;;;;;7399065;19;20006;-74
2023/01/11 01:39:02;;;;;;;8.10;2.30;;;;;;;;;;7399516;19;20006;-74
2023/01/11 01:41:27;;;;;;;6.78;2.03;;;;;;;;;;7398768;19;20036;-73
2023/01/11 01:43:55;;;;;;;5.82;1.70;;;;;;;;;;7397830;19;20460;-73
2023/01/11 01:46:25;;;;;;;9.20;2.17;;;;;;;;;;7396332;19;20043;-74
2023/01/11 01:49:01;;;;;;;11.13;2.40;;;;;;;;;;7396059;19;20305;-74
2023/01/11 01:51:32;;;;;;;4.53;1.85;;;;;;;;;;7398539;19;19995;-73
2023/01/11 01:54:01;;;;;;;2.15;1.58;;;;;;;;;;7397126;19;20005;-74
2023/01/11 01:56:44;;;;;;;6.22;1.50;;;;;;;;;;7395522;19;20404;-74
2023/01/11 01:59:13;;;;;;;5.60;2.17;;;;;;;;;;7398237;19;20010;-74
2023/01/11 02:01:48;;;;;;;5.18;2.22;;;;;;;;;;7398029;19;20022;-74
2023/01/11 02:04:22;;;;;;;6.45;2.60;;;;;;;;;;7398976;19;20019;-73
2023/01/11 02:06:49;;;;;;;6.38;2.25;;;;;;;;;;7403696;19;20019;-73
2023/01/11 02:09:26;;;;;;;5.72;1.92;;;;;;;;;;7399964;19;20023;-73
2023/01/11 02:11:54;;;;;;;4.00;2.22;;;;;;;;;;7402664;19;20007;-73
2023/01/11 02:14:20;;;;;;;4.93;2.33;;;;;;;;;;7402267;19;19991;-74
2023/01/11 02:16:46;;;;;;;4.85;2.00;;;;;;;;;;7398032;19;20471;-74
2023/01/11 02:19:42;;;;;;;6.65;2.17;;;;;;;;;;7397270;19;20050;-74
2023/01/11 02:22:29;;;;;;;8.20;2.10;;;;;;;;;;7396929;19;20011;-73
2023/01/11 02:25:19;;;;;;;8.25;2.10;;;;;;;;;;7395393;19;20005;-72
2023/01/11 02:28:00;;;;;;;6.47;2.30;;;;;;;;;;7396655;19;20424;-75
2023/01/11 02:30:50;;;;;;;8.40;2.22;;;;;;;;;;7397085;19;19999;-73
2023/01/11 02:33:25;;;;;;;8.70;2.35;;;;;;;;;;7398214;19;20013;-75
2023/01/11 02:36:06;;;;;;;5.10;2.10;;;;;;;;;;7395275;19;20006;-73
2023/01/11 02:38:39;;;;;;;5.97;2.28;;;;;;;;;;7396407;19;20006;-74
2023/01/11 02:45:00;;;;;;;6.60;1.98;;;;;;;;;;7394891;19;20001;-73
2023/01/11 02:47:14;;;;;;;10.15;2.42;;;;;;;;;;7396368;19;20485;-74
2023/01/11 02:49:52;;;;;;;9.88;2.83;;;;;;;;;;7393638;19;20002;-75
2023/01/11 02:52:31;;;;;;;5.68;2.42;;;;;;;;;;7396042;19;20440;-74
2023/01/11 02:54:57;;;;;;;3.95;1.92;;;;;;;;;;7399146;19;20005;-74
2023/01/11 02:57:25;;;;;;;7.18;2.47;;;;;;;;;;7399673;19;19999;-73
2023/01/11 02:59:53;;;;;;;6.70;2.17;;;;;;;;;;7397285;19;20002;-75
2023/01/11 03:02:19;;;;;;;12.15;2.45;;;;;;;;;;7395747;19;20020;-75
2023/01/11 03:04:44;;;;;;;2.35;1.38;;;;;;;;;;7393617;19;20003;-73
2023/01/11 03:07:43;;;;;;;8.27;2.05;;;;;;;;;;7394517;19;20003;-74
2023/01/11 03:10:39;;;;;;;5.93;2.10;;;;;;;;;;7395581;19;19998;-74
2023/01/11 03:13:21;;;;;;;6.68;1.85;;;;;;;;;;7394333;19;19999;-75
2023/01/11 03:16:08;;;;;;;5.65;2.30;;;;;;;;;;7394810;19;20005;-74
2023/01/11 03:18:48;;;;;;;4.38;2.00;;;;;;;;;;7395565;19;20006;-74
2023/01/11 03:21:25;;;;;;;7.35;2.00;;;;;;;;;;7395762;19;20003;-73
2023/01/11 03:24:02;;;;;;;5.72;1.75;;;;;;;;;;7393643;19;20015;-73
2023/01/11 03:26:34;;;;;;;8.07;2.17;;;;;;;;;;7392577;19;19999;-75
2023/01/11 03:29:08;;;;;;;;;;;;;;;;;;7398535;19;20104;-75
2023/01/11 03:31:44;;;;;;;5.97;1.92;;;;;;;;;;7397726;19;19915;-74
2023/01/11 03:34:49;;;;;;;5.15;2.13;;;;;;;;;;7393151;19;20024;-74
2023/01/11 03:37:36;;;;;;;3.65;1.80;;;;;;;;;;7392260;19;19999;-74
2023/01/11 03:40:17;;;;;;;6.15;2.00;;;;;;;;;;7393271;19;20003;-75
2023/01/11 03:45:33;;;;;;;5.78;1.90;;;;;;;;;;7393701;19;20368;-73
2023/01/11 03:48:01;;;;;;;5.90;1.90;;;;;;;;;;7393658;19;19999;-73
2023/01/11 03:50:28;;;;;;;7.55;1.98;;;;;;;;;;7394452;19;20361;-75
2023/01/11 03:52:57;;;;;;;5.20;1.73;;;;;;;;;;7389399;19;20469;-75
2023/01/11 03:55:25;;;;;;;6.55;1.70;;;;;;;;;;7391924;19;20007;-74
2023/01/11 03:57:53;;;;;;;8.77;2.35;;;;;;;;;;7394829;19;20330;-75
2023/01/11 04:00:22;;;;;;;4.68;1.80;;;;;;;;;;7394157;19;20003;-74
2023/01/11 04:02:47;;;;;;;6.13;1.88;;;;;;;;;;7392982;19;20002;-74
2023/01/11 04:05:13;;;;;;;8.30;2.08;;;;;;;;;;7397343;19;20003;-75
2023/01/11 04:07:38;;;;;;;4.07;1.77;;;;;;;;;;7391977;19;20465;-74
2023/01/11 04:10:05;;;;;;;4.07;2.20;;;;;;;;;;7393345;19;19998;-74
2023/01/11 04:12:30;;;;;;;5.85;2.20;;;;;;;;;;7391287;19;19998;-75
2023/01/11 04:14:56;;;;;;;5.38;1.90;;;;;;;;;;7392058;19;20406;-75
2023/01/11 04:17:21;;;;;;;7.57;2.15;;;;;;;;;;7393364;19;20033;-74
2023/01/11 04:19:46;;;;;;;4.35;2.00;;;;;;;;;;7393087;19;20013;-74
2023/01/11 04:22:12;;;;;;;6.68;1.92;;;;;;;;;;7393507;19;20002;-74
2023/01/11 04:24:37;;;;;;;5.88;1.90;;;;;;;;;;7391548;19;20028;-75
2023/01/11 04:27:02;;;;;;;5.53;2.00;;;;;;;;;;7392988;19;20858;-74
2023/01/11 04:29:27;;;;;;;6.70;1.88;;;;;;;;;;7391122;19;20001;-73
2023/01/11 04:32:03;;;;;;;4.05;1.85;;;;;;;;;;7392218;19;20034;-75
2023/01/11 04:34:28;;;;;;;4.47;1.98;;;;;;;;;;7391140;19;20006;-74
2023/01/11 04:36:53;;;;;;;4.80;1.80;;;;;;;;;;7392694;19;19999;-74
2023/01/11 04:39:19;;;;;;;3.10;1.73;;;;;;;;;;7392486;19;19997;-75
2023/01/11 04:44:28;;;;;;;4.30;1.85;;;;;;;;;;7391231;19;20013;-74
2023/01/11 04:46:53;;;;;;;7.40;2.03;;;;;;;;;;7392277;19;19995;-75
2023/01/11 04:49:18;;;;;;;7.95;1.75;;;;;;;;;;7391506;19;20111;-74
2023/01/11 04:51:44;;;;;;;8.45;2.03;;;;;;;;;;7396615;19;19999;-74
2023/01/11 04:54:09;;;;;;;6.97;2.28;;;;;;;;;;7390760;19;19998;-74
2023/01/11 04:56:35;;;;;;;4.25;1.70;;;;;;;;;;7394345;19;20445;-75
2023/01/11 04:59:00;;;;;;;7.25;1.95;;;;;;;;;;7391746;19;20170;-73
2023/01/11 05:01:26;;;;;;;5.32;1.60;;;;;;;;;;7391969;19;19995;-73
2023/01/11 05:03:51;;;;;;;8.68;2.03;;;;;;;;;;7388714;19;19990;-73
2023/01/11 05:06:21;;;;;;;6.50;1.75;;;;;;;;;;7390438;19;19995;-75
2023/01/11 05:08:47;;;;;;;3.92;1.88;;;;;;;;;;7390603;19;19995;-75
2023/01/11 05:11:13;;;;;;;6.03;1.80;;;;;;;;;;7391830;19;19991;-75
2023/01/11 05:13:41;;;;;;;4.50;1.73;;;;;;;;;;7390915;19;20636;-74
2023/01/11 05:16:10;;;;;;;4.72;2.00;;;;;;;;;;7390951;19;19994;-74
2023/01/11 05:18:42;;;;;;;4.28;1.83;;;;;;;;;;7392218;19;19998;-73
2023/01/11 05:21:10;;;;;;;4.10;1.73;;;;;;;;;;7393744;19;20030;-75
2023/01/11 05:23:36;;;;;;;3.83;1.90;;;;;;;;;;7393914;19;19999;-74
2023/01/11 05:26:07;;;;;;;3.97;2.00;;;;;;;;;;7395060;19;19990;-73
2023/01/11 05:28:33;;;;;;;4.07;1.73;;;;;;;;;;7401733;19;20002;-74
2023/01/11 05:30:58;;;;;;;3.70;2.20;;;;;;;;;;7401186;19;20023;-74
2023/01/11 05:33:24;;;;;;;6.05;2.25;;;;;;;;;;7394664;19;20054;-74
2023/01/11 05:35:49;;;;;;;5.80;1.88;;;;;;;;;;7388486;19;19999;-74
2023/01/11 05:38:14;;;;;;;7.95;2.55;;;;;;;;;;7390979;19;20001;-73
2023/01/11 05:40:40;;;;;;;5.13;2.30;;;;;;;;;;7391158;19;19991;-74
2023/01/11 05:43:05;;;;;;;4.97;2.30;;;;;;;;;;7389636;19;20062;-74
2023/01/11 05:45:31;;;;;;;8.60;2.33;;;;;;;;;;7390110;19;19999;-73
2023/01/11 05:47:57;;;;;;;4.68;2.30;;;;;;;;;;7392390;19;20355;-73
2023/01/11 05:50:24;;;;;;;4.70;2.00;;;;;;;;;;7388167;19;20019;-73
2023/01/11 05:52:49;;;;;;;4.90;2.20;;;;;;;;;;7388202;19;20482;-74
2023/01/11 05:55:15;;;;;;;3.92;2.05;;;;;;;;;;7387285;19;20529;-74
2023/01/11 05:57:41;;;;;;;5.25;1.75;;;;;;;;;;7388777;19;20373;-75
2023/01/11 06:00:07;;;;;;;3.88;1.85;;;;;;;;;;7385087;19;20114;-74
2023/01/11 06:02:34;;;;;;;4.05;2.13;;;;;;;;;;7384412;19;20403;-74
2023/01/11 06:04:59;;;;;;;6.15;2.20;;;;;;;;;;7389268;19;20002;-75
2023/01/11 06:07:24;;;;;;;4.82;2.00;;;;;;;;;;7389943;19;20458;-74
2023/01/11 06:09:50;;;;;;;5.13;2.10;;;;;;;;;;7391079;19;19991;-74
2023/01/11 06:12:15;;;;;;;5.28;2.10;;;;;;;;;;7394118;19;20011;-74
2023/01/11 06:14:41;;;;;;;2.95;1.90;;;;;;;;;;7391774;19;20097;-76
2023/01/11 06:17:06;;;;;;;4.05;1.98;;;;;;;;;;7396954;19;19990;-75
2023/01/11 06:19:31;;;;;;;4.57;2.22;;;;;;;;;;7399313;19;19995;-74
2023/01/11 06:21:56;;;;;;;7.78;2.10;;;;;;;;;;7398658;19;19998;-75
2023/01/11 06:24:30;;;;;;;5.05;2.00;;;;;;;;;;7396947;19;19999;-75
2023/01/11 06:26:56;;;;;;;6.45;2.10;;;;;;;;;;7395193;19;19998;-74
2023/01/11 06:29:27;;;;;;;4.85;2.17;;;;;;;;;;7395890;19;20555;-75
2023/01/11 06:31:52;;;;;;;3.35;1.88;;;;;;;;;;7390857;19;20022;-75
2023/01/11 06:34:17;;;;;;;6.45;1.95;;;;;;;;;;7396385;19;20007;-75
2023/01/11 06:36:43;;;;;;;5.93;2.20;;;;;;;;;;7398150;19;20384;-74
2023/01/11 06:39:09;;;;;;;5.78;2.03;;;;;;;;;;7392698;19;20003;-75
2023/01/11 06:41:35;;;;;;;3.05;1.63;;;;;;;;;;7397591;19;20006;-74
2023/01/11 06:44:00;;;;;;;4.50;1.90;;;;;;;;;;7396169;19;19995;-73
2023/01/11 06:46:26;;;;;;;6.53;2.20;;;;;;;;;;7391451;19;20005;-75
2023/01/11 06:49:00;;;;;;;6.55;1.92;;;;;;;;;;7394616;19;20029;-74
2023/01/11 06:51:26;;;;;;;3.25;1.60;;;;;;;;;;7398503;19;20006;-75
2023/01/11 06:53:51;;;;;;;3.95;1.92;;;;;;;;;;7392329;19;20002;-74
2023/01/11 06:56:20;;;;;;;4.60;2.08;;;;;;;;;;7391806;19;20027;-75
2023/01/11 06:58:46;;;;;;;4.20;2.38;;;;;;;;;;7393394;19;20080;-75
2023/01/11 07:01:15;;;;;;;5.78;2.50;;;;;;;;;;7393473;19;20002;-74
2023/01/11 07:03:44;;;;;;;5.20;2.38;;;;;;;;;;7392516;19;20349;-75
2023/01/11 07:06:10;;;;;;;10.50;2.08;;;;;;;;;;7392037;19;20013;-74
2023/01/11 07:08:41;;;;;;;3.97;2.15;;;;;;;;;;7393693;19;20447;-76
2023/01/11 07:11:16;;;;;;;6.10;2.45;;;;;;;;;;7398418;19;20002;-76
2023/01/11 07:13:50;;;;;;;5.45;2.60;;;;;;;;;;7391849;19;19998;-74
2023/01/11 07:16:19;;;;;;;5.28;2.25;;;;;;;;;;6621867;19;15068716;-75
2023/01/11 07:18:45;;;;;;;5.78;2.20;;;;;;;;;;7396165;19;20477;-73
2023/01/11 07:21:11;;;;;;;8.55;2.33;;;;;;;;;;7399216;19;19998;-74
2023/01/11 07:23:36;;;;;;;3.00;1.95;;;;;;;;;;7397316;19;19995;-73
2023/01/11 07:26:02;;;;;;;4.55;2.00;;;;;;;;;;7397193;19;19998;-75
2023/01/11 07:28:29;;;;;;;6.40;2.25;;;;;;;;;;7394726;19;19998;-75
2023/01/11 07:30:55;;;;;;;6.38;2.22;;;;;;;;;;7396829;19;20001;-74
2023/01/11 07:33:23;;;;;;;7.30;2.55;;;;;;;;;;7397644;19;19998;-75
2023/01/11 07:35:49;;;;;;;8.02;2.17;;;;;;;;;;7397102;19;20002;-76
2023/01/11 07:38:14;;;;;;;8.07;2.10;;;;;;;;;;7399264;19;20078;-75
2023/01/11 07:40:40;;;;;;;6.38;2.10;;;;;;;;;;7398871;19;19990;-76
2023/01/11 07:43:13;;;;;;;5.70;2.05;;;;;;;;;;7397886;19;20481;-74
2023/01/11 07:45:46;;;;;;;4.28;1.88;;;;;;;;;;7388982;19;20480;-75
2023/01/11 07:48:13;;;;;;;5.55;2.05;;;;;;;;;;7395844;19;20007;-74
2023/01/11 07:50:46;;;;;;;6.22;2.28;;;;;;;;;;7398103;19;20020;-74
2023/01/11 07:53:15;;;;;;;5.72;2.17;;;;;;;;;;7396053;19;20508;-74
2023/01/11 07:55:46;;;;;;;6.38;2.00;;;;;;;;;;7396037;19;20022;-73
2023/01/11 07:58:15;;;;;;;5.28;1.92;;;;;;;;;;7394970;19;20094;-75
2023/01/11 08:00:41;;;;;;;3.03;1.77;;;;;;;;;;7397228;19;20003;-75
2023/01/11 08:03:10;;;;;;;5.05;1.85;;;;;;;;;;7395746;19;20065;-75
2023/01/11 08:05:36;;;;;;;4.57;2.20;;;;;;;;;;7392854;19;20098;-74
2023/01/11 08:08:03;;;;;;;3.00;2.05;;;;;;;;;;7394821;19;20021;-74
2023/01/11 08:10:37;;;;;;;4.60;2.05;;;;;;;;;;7396685;19;20009;-75
2023/01/11 08:16:00;;;;;;;8.38;2.28;;;;;;;;;;7396316;19;20503;-76
2023/01/11 08:18:26;;;;;;;4.47;2.08;;;;;;;;;;7396441;19;20030;-75
2023/01/11 08:20:54;;;;;;;4.05;2.20;;;;;;;;;;7396447;19;19994;-74
2023/01/11 08:23:22;;;;;;;4.40;1.90;;;;;;;;;;7394580;19;19995;-75
2023/01/11 08:25:47;;;;;;;3.65;2.05;;;;;;;;;;7396105;19;20067;-74
2023/01/11 08:28:18;;;;;;;6.88;2.40;;;;;;;;;;7393507;19;20010;-75
2023/01/11 08:30:44;;;;;;;3.88;2.15;;;;;;;;;;7394726;19;20410;-74
2023/01/11 08:33:09;;;;;;;5.45;2.03;;;;;;;;;;7393111;19;20019;-74
2023/01/11 08:35:38;;;;;;;5.15;2.40;;;;;;;;;;7394203;19;19999;-75
2023/01/11 08:38:04;;;;;;;4.22;2.47;;;;;;;;;;7392523;19;19999;-73
2023/01/11 08:40:29;;;;;;;4.47;2.30;;;;;;;;;;7392689;19;20002;-77
2023/01/11 08:42:55;;;;;;;5.85;2.72;;;;;;;;;;7391109;19;20009;-75
2023/01/11 08:45:21;;;;;;;6.50;2.15;;;;;;;;;;7389062;19;19998;-76
2023/01/11 08:47:47;;;;;;;4.95;2.60;;;;;;;;;;7392551;19;20472;-74
2023/01/11 08:50:15;;;;;;;6.38;2.72;;;;;;;;;;7392819;19;20002;-74
2023/01/11 08:52:42;;;;;;;5.90;2.72;;;;;;;;;;7390064;19;19995;-76
2023/01/11 08:55:31;;;;;;;;;;;;;;;;;;;;;
2023/01/11 08:57:57;;;;;;;9.77;2.85;;;;;;;;;;7394650;19;20001;-75
2023/01/11 09:00:22;;;;;;;5.80;2.28;;;;;;;;;;7394335;19;20058;-75
2023/01/11 09:02:48;;;;;;;4.22;2.63;;;;;;;;;;7393965;19;20014;-75
2023/01/11 09:05:13;;;;;;;4.93;2.50;;;;;;;;;;7390399;19;20437;-76
2023/01/11 09:07:39;;;;;;;8.10;2.60;;;;;;;;;;7391929;19;20341;-76
2023/01/11 09:10:04;;;;;;;7.30;2.50;;;;;;;;;;7392892;19;19998;-75
2023/01/11 09:12:31;;;;;;;6.38;2.53;;;;;;;;;;7393874;19;19990;-75
2023/01/11 09:14:57;;;;;;;8.68;2.63;;;;;;;;;;7392623;19;20123;-76
2023/01/11 09:17:22;;;;;;;7.55;2.38;;;;;;;;;;7392917;19;20523;-76
2023/01/11 09:19:48;;;;;;;7.35;2.40;;;;;;;;;;7392353;19;19999;-75
2023/01/11 09:22:14;;;;;;;6.80;2.88;;;;;;;;;;7392400;19;20009;-75
2023/01/11 09:24:39;;;;;;;6.18;2.30;;;;;;;;;;7391747;19;20015;-75
2023/01/11 09:27:05;;;;;;;5.95;2.60;;;;;;;;;;7394231;19;19994;-75
2023/01/11 09:29:30;;;;;;;11.93;2.90;;;;;;;;;;7392004;19;19991;-76
2023/01/11 09:31:56;;;;;;;4.28;2.60;;;;;;;;;;7393757;19;20001;-76
2023/01/11 09:34:22;;;;;;;4.85;2.42;;;;;;;;;;7391791;19;20006;-76
2023/01/11 09:36:47;;;;;;;9.95;2.60;;;;;;;;;;7393767;19;19995;-76
2023/01/11 09:39:17;;;;;;;7.28;2.40;;;;;;;;;;7393028;19;20051;-76
2023/01/11 09:42:14;;;;;;;4.68;2.15;;;;;;;;;;7391929;19;20007;-76
2023/01/11 09:45:09;;;;;;;10.95;2.70;;;;;;;;;;7391642;19;20003;-75
2023/01/11 09:47:47;;;;;;;4.30;2.20;;;;;;;;;;7392290;19;20067;-75
2023/01/11 09:50:25;;;;;;;7.43;2.25;;;;;;;;;;7392563;19;20002;-76
2023/01/11 09:53:02;;;;;;;4.88;2.00;;;;;;;;;;7397662;19;20003;-75
2023/01/11 09:55:34;;;;;;;8.88;2.60;;;;;;;;;;7399199;19;20318;-76
2023/01/11 09:58:35;;;;;;;7.75;2.45;;;;;;;;;;7399575;19;20464;-75
2023/01/11 10:01:24;;;;;;;3.72;2.38;;;;;;;;;;7401238;19;20523;-76
2023/01/11 10:04:02;;;;;;;5.68;2.25;;;;;;;;;;7399825;19;19999;-75
2023/01/11 10:06:46;;;;;;;6.03;2.30;;;;;;;;;;7397612;19;20460;-75
2023/01/11 10:09:35;;;;;;;5.30;2.15;;;;;;;;;;7394244;19;20011;-76
2023/01/11 10:12:30;;;;;;;4.43;2.20;;;;;;;;;;7399646;19;20444;-76
2023/01/11 10:15:22;;;;;;;4.10;2.20;;;;;;;;;;7397532;19;19998;-76
2023/01/11 10:17:54;;;;;;;4.18;2.22;;;;;;;;;;7399069;19;20003;-75
2023/01/11 10:20:26;;;;;;;8.55;2.70;;;;;;;;;;7398892;19;20461;-76
2023/01/11 10:22:59;;;;;;;4.43;1.90;;;;;;;;;;7397013;19;20028;-75
2023/01/11 10:25:32;;;;;;;3.15;1.60;;;;;;;;;;7396270;19;20008;-77
2023/01/11 10:28:00;;;;;;;3.50;1.63;;;;;;;;;;7398403;19;20472;-76
2023/01/11 10:30:50;;;;;;;2.13;1.23;;;;;;;;;;7397163;19;20403;-76
2023/01/11 10:39:20;;;;;;;1.75;1.10;;;;;;;;;;7400234;19;19999;-74
2023/01/11 10:42:02;;;;;;;1.58;0.82;;;;;;;;;;7397459;19;19999;-75
2023/01/11 10:44:37;;;;;;;1.23;1.08;;;;;;;;;;7397085;19;19994;-75
2023/01/11 10:47:10;;;;;;;2.58;1.20;;;;;;;;;;7400268;19;20009;-75
2023/01/11 10:49:55;;;;;;;1.77;1.33;;;;;;;;;;7394130;19;20012;-75
2023/01/11 10:52:33;;;;;;;1.77;1.08;;;;;;;;;;7396858;19;19998;-75
2023/01/11 10:55:01;;;;;;;3.55;1.15;;;;;;;;;;7398304;19;20013;-74
2023/01/11 10:57:58;;;;;;;1.77;1.10;;;;;;;;;;7399334;19;19995;-75
2023/01/11 11:00:52;;;;;;;3.10;1.70;;;;;;;;;;7398879;19;19999;-75
2023/01/11 11:03:44;;;;;;;1.35;1.08;;;;;;;;;;7394124;19;19998;-75
2023/01/11 11:06:23;;;;;;;1.55;1.45;;;;;;;;;;7396747;19;20007;-75
2023/01/11 11:09:05;;;;;;;1.20;1.02;;;;;;;;;;7409121;19;20021;-75
2023/01/11 11:11:37;;;;;;;1.27;1.17;;;;;;;;;;7417641;19;20044;-74
2023/01/11 11:14:19;;;;;;;1.50;1.02;;;;;;;;;;7416895;19;20084;-76
2023/01/11 11:17:06;;;;;;;2.47;1.10;;;;;;;;;;7402519;19;20047;-75
2023/01/11 11:19:32;;;;;;;1.88;1.40;;;;;;;;;;7394551;19;19999;-75
2023/01/11 11:21:58;;;;;;;1.88;1.13;;;;;;;;;;7395277;19;19998;-76
2023/01/11 11:24:32;;;;;;;2.70;1.50;;;;;;;;;;7390010;19;20488;-76
2023/01/11 11:27:05;;;;;;;2.05;1.30;;;;;;;;;;7399610;19;20353;-74
2023/01/11 11:29:30;;;;;;;2.70;1.50;;;;;;;;;;7397095;19;20358;-75
2023/01/11 11:31:58;;;;;;;1.98;1.13;;;;;;;;;;7396968;19;20002;-74
2023/01/11 11:34:26;;;;;;;2.22;1.23;;;;;;;;;;7397021;19;20497;-73
2023/01/11 11:36:52;;;;;;;2.25;1.50;;;;;;;;;;7397889;19;20024;-75
2023/01/11 11:39:21;;;;;;;1.58;1.33;;;;;;;;;;7398097;19;20113;-74
2023/01/11 11:41:50;;;;;;;2.55;1.55;;;;;;;;;;7396158;19;20372;-74
2023/01/11 11:44:24;;;;;;;1.42;1.33;;;;;;;;;;7394268;19;20010;-76
2023/01/11 11:47:05;;;;;;;2.03;1.30;;;;;;;;;;7396712;19;20392;-75
2023/01/11 11:49:33;;;;;;;2.17;1.30;;;;;;;;;;7395753;19;20029;-73
2023/01/11 11:52:00;;;;;;;6.38;3.70;;;;;;;;;;7398096;19;20062;-73
2023/01/11 11:54:28;;;;;;;2.40;1.50;;;;;;;;;;7393937;19;20002;-74
2023/01/11 11:56:56;;;;;;;2.65;1.48;;;;;;;;;;7396650;19;20027;-75
2023/01/11 11:59:24;;;;;;;2.88;1.45;;;;;;;;;;7397085;19;20062;-74
2023/01/11 12:02:00;;;;;;;2.13;1.30;;;;;;;;;;7391378;19;20010;-75
2023/01/11 12:04:38;;;;;;;1.73;1.17;;;;;;;;;;7390125;19;19994;-73
2023/01/11 12:07:22;;;;;;;1.95;1.13;;;;;;;;;;7393696;19;20006;-73
2023/01/11 12:10:15;;;;;;;2.58;1.50;;;;;;;;;;7390148;19;20002;-75
2023/01/11 12:12:52;;;;;;;3.55;1.25;;;;;;;;;;7389731;19;20536;-73
2023/01/11 12:15:24;;;;;;;4.57;1.00;;;;;;;;;;7390553;19;20019;-75
2023/01/11 12:17:50;;;;;;;3.70;1.20;;;;;;;;;;7393678;19;20080;-74
2023/01/11 12:20:21;;;;;;;1.48;0.98;;;;;;;;;;7393628;19;20014;-73
2023/01/11 12:23:08;;;;;;;1.48;0.90;;;;;;;;;;7391740;19;20456;-75
2023/01/11 12:25:49;;;;;;;1.00;0.75;;;;;;;;;;7392054;19;20010;-74
2023/01/11 12:28:35;;;;;;;1.40;0.87;;;;;;;;;;7392488;19;20003;-74
2023/01/11 12:31:06;;;;;;;0.70;0.70;;;;;;;;;;7393573;19;20559;-73
2023/01/11 12:33:40;;;;;;;2.17;1.23;;;;;;;;;;7392351;19;20091;-74
2023/01/11 12:36:28;;;;;;;2.63;1.13;;;;;;;;;;7392662;19;20005;-74
2023/01/11 12:39:11;;;;;;;1.25;0.80;;;;;;;;;;7392814;19;20480;-73
2023/01/11 12:41:51;;;;;;;0.63;0.63;;;;;;;;;;7393250;19;20304;-74
2023/01/11 12:44:29;;;;;;;0.63;0.63;;;;;;;;;;7391054;19;20007;-75
2023/01/11 12:47:21;;;;;;;2.85;1.20;;;;;;;;;;7393120;19;20105;-74
2023/01/11 12:50:14;;;;;;;0.93;0.65;;;;;;;;;;7391092;19;20378;-74
2023/01/11 12:53:02;;;;;;;0.70;0.70;;;;;;;;;;7390887;19;20002;-75
2023/01/11 12:55:44;;;;;;;1.13;1.02;;;;;;;;;;7389227;19;20002;-75
2023/01/11 12:58:24;;;;;;;;;;;;;;;;;;7392731;19;20474;-76
2023/01/11 13:01:03;;;;;;;0.52;0.40;;;;;;;;;;7392315;19;20327;-73
2023/01/11 13:04:13;;;;;;;2.25;0.60;;;;;;;;;;7390593;19;20020;-74
2023/01/11 13:07:22;;;;;;;0.73;0.57;;;;;;;;;;7389767;19;20015;-74
2023/01/11 13:10:01;;;;;;;1.00;0.70;;;;;;;;;;7386308;19;20358;-75
2023/01/11 13:12:41;;;;;;;1.17;0.80;;;;;;;;;;7391291;19;20460;-74
2023/01/11 13:15:27;;;;;;;2.15;1.50;;;;;;;;;;7391207;19;20028;-76
2023/01/11 13:18:02;;;;;;;1.20;1.10;;;;;;;;;;7391377;19;20003;-75
2023/01/11 13:20:41;;;;;;;3.03;0.90;;;;;;;;;;7392643;19;19991;-75
2023/01/11 13:23:25;;;;;;;4.93;2.10;;;;;;;;;;7393036;19;19995;-74
2023/01/11 13:25:52;;;;;;;2.00;1.25;;;;;;;;;;7386938;19;20019;-75
2023/01/11 13:28:37;;;;;;;2.13;1.17;;;;;;;;;;7391362;19;20492;-75
2023/01/11 13:31:05;;;;;;;3.30;1.13;;;;;;;;;;7391578;19;20032;-73
2023/01/11 13:33:31;;;;;;;1.33;1.20;;;;;;;;;;7389818;19;20048;-74
2023/01/11 13:36:04;;;;;;;1.95;0.98;;;;;;;;;;7389617;19;20010;-74
2023/01/11 13:38:37;;;;;;;2.45;1.30;;;;;;;;;;7391300;19;19991;-75
2023/01/11 13:41:20;;;;;;;5.15;1.30;;;;;;;;;;7390916;19;19995;-74
2023/01/11 13:44:16;;;;;;;2.35;1.30;;;;;;;;;;7389639;19;20019;-75
2023/01/11 13:47:08;;;;;;;4.40;1.30;;;;;;;;;;7389531;19;20103;-76
2023/01/11 13:49:37;;;;;;;4.75;1.13;;;;;;;;;;7388972;19;20027;-74
2023/01/11 13:52:09;;;;;;;7.72;1.38;;;;;;;;;;7390379;19;20005;-74
2023/01/11 13:54:56;;;;;;;5.65;1.30;;;;;;;;;;7388971;19;20002;-74
2023/01/11 13:57:32;;;;;;;5.78;1.40;;;;;;;;;;7390722;19;20443;-74
2023/01/11 14:00:05;;;;;;;7.07;2.22;;;;;;;;;;7390526;19;20012;-75
2023/01/11 14:02:41;;;;;;;4.95;1.27;;;;;;;;;;7391169;19;20028;-77
2023/01/11 14:05:15;;;;;;;7.15;1.52;;;;;;;;;;7390342;19;20353;-74
2023/01/11 14:07:59;;;;;;;6.28;1.55;;;;;;;;;;7390249;19;20421;-73
2023/01/11 14:10:37;;;;;;;8.43;1.65;;;;;;;;;;7388628;19;20493;-75
2023/01/11 14:16:50;;;;;;;5.50;1.60;;;;;;;;;;7387188;19;20006;-74
2023/01/11 14:19:43;;;;;;;6.47;1.20;;;;;;;;;;7392768;19;19999;-75
2023/01/11 14:22:13;;;;;;;9.85;2.17;;;;;;;;;;7393080;19;19998;-75
2023/01/11 14:24:42;;;;;;;7.00;1.67;;;;;;;;;;7392182;19;20006;-75
2023/01/11 14:27:42;;;;;;;6.95;1.80;;;;;;;;;;7393219;19;19999;-75
2023/01/11 14:30:24;;;;;;;8.10;1.73;;;;;;;;;;7390091;19;20006;-74
2023/01/11 14:33:01;;;;;;;9.45;1.50;;;;;;;;;;7392596;19;20500;-75
2023/01/11 14:36:09;;;;;;;8.60;1.80;;;;;;;;;;7391720;19;20016;-74
2023/01/11 14:38:51;;;;;;;3.95;1.42;;;;;;;;;;7387984;19;20006;-74
2023/01/11 14:41:31;;;;;;;;;;;;;;;;;;7396129;19;20013;-75
2023/01/11 14:44:18;;;;;;;6.57;1.60;;;;;;;;;;7397753;19;19911;-74
2023/01/11 14:46:59;;;;;;;13.15;1.83;;;;;;;;;;7395701;19;20002;-73
2023/01/11 14:49:32;;;;;;;4.88;1.30;;;;;;;;;;7393367;19;20019;-73
2023/01/11 14:52:03;;;;;;;5.55;1.63;;;;;;;;;;7398646;19;20014;-74
2023/01/11 14:54:39;;;;;;;12.15;1.67;;;;;;;;;;7396337;19;20055;-77
2023/01/11 14:57:04;;;;;;;7.35;1.83;;;;;;;;;;7399843;19;19998;-76
2023/01/11 14:59:29;;;;;;;7.65;1.52;;;;;;;;;;7395256;19;20625;-74
2023/01/11 15:02:10;;;;;;;10.57;1.92;;;;;;;;;;7397799;19;20011;-74
2023/01/11 15:04:56;;;;;;;10.93;1.70;;;;;;;;;;7398039;19;20477;-75
2023/01/11 15:07:28;;;;;;;11.05;1.85;;;;;;;;;;7396099;19;19991;-73
2023/01/11 15:09:55;;;;;;;9.57;1.60;;;;;;;;;;7394040;19;20010;-75
2023/01/11 15:12:24;;;;;;;11.27;1.80;;;;;;;;;;7397480;19;20249;-75
2023/01/11 15:14:59;;;;;;;9.00;1.83;;;;;;;;;;7397494;19;20037;-76
2023/01/11 15:20:17;;;;;;;7.22;1.40;;;;;;;;;;7397947;19;20060;-75
2023/01/11 15:22:43;;;;;;;8.55;1.50;;;;;;;;;;7395827;19;20001;-75
2023/01/11 15:25:25;;;;;;;3.30;1.25;;;;;;;;;;7397009;19;20002;-74
2023/01/11 15:27:51;;;;;;;;;;;;;;;;;;7398648;19;20368;-74
2023/01/11 15:30:28;;;;;;;5.53;1.50;;;;;;;;;;7396061;19;20229;-74
2023/01/11 15:33:15;;;;;;;7.95;1.92;;;;;;;;;;7396170;19;19998;-73
2023/01/11 15:35:41;;;;;;;7.18;1.63;;;;;;;;;;7395504;19;20003;-74
2023/01/11 15:38:14;;;;;;;8.88;1.30;;;;;;;;;;7397557;19;20010;-74
2023/01/11 15:40:45;;;;;;;7.15;1.35;;;;;;;;;;7395357;19;19994;-75
2023/01/11 15:43:44;;;;;;;6.25;1.95;;;;;;;;;;7393376;19;20002;-76
2023/01/11 15:46:54;;;;;;;8.15;1.63;;;;;;;;;;7395852;19;20024;-74